Time;durP1;ratioP1;P1;durP2;ratioP2;P2;SDS_P1;SDS_P2;PMS_P1;PMS_P2;Temp;Humidity;BMP_temperature;BMP_pressure;BME280_temperature;BME280_humidity;BME280_pressure;Samples;Min_cycle;Max_cycle;Signal;HPM_P1;HPM_P2
2023/02/22 00:03:58;;;;;;;;;;;;;;;20.18;37.69;100517.74;106259;1282;74699;-81
2023/02/22 00:06:24;;;;;;;;;;;;;;;20.18;37.74;100516.81;106294;1281;62079;-81
2023/02/22 00:08:52;;;;;;;;;;;;;;;20.18;37.74;100510.91;106168;1282;62172;-81
2023/02/22 00:11:18;;;;;;;;;;;;;;;20.18;37.80;100512.88;106152;1282;61970;-81
2023/02/22 00:13:43;;;;;;;;;;;;;;;20.18;37.74;100507.36;106275;1282;62173;-81
2023/02/22 00:16:16;;;;;;;;;;;;;;;20.18;37.75;100505.56;106191;1282;62111;-81
2023/02/22 00:18:43;;;;;;;;;;;;;;;20.18;37.58;100502.69;106035;1282;62011;-81
2023/02/22 00:21:09;;;;;;;;;;;;;;;20.18;37.72;100507.02;106163;1282;72514;-81
2023/02/22 00:23:35;;;;;;;;;;;;;;;20.18;37.75;100501.62;106270;1283;62137;-81
2023/02/22 00:26:03;;;;;;;;;;;;;;;20.17;37.77;100496.30;106170;1283;62097;-81
2023/02/22 00:28:29;;;;;;;;;;;;;;;20.18;37.84;100501.47;106182;1281;62111;-81
2023/02/22 00:30:55;;;;;;;;;;;;;;;20.18;37.73;100499.14;106165;1286;62001;-81
2023/02/22 00:33:21;;;;;;;;;;;;;;;20.18;37.68;100503.24;106149;1283;62078;-81
2023/02/22 00:35:47;;;;;;;;;;;;;;;20.18;37.70;100511.48;106169;1281;60894;-81
2023/02/22 00:38:14;;;;;;;;;;;;;;;20.18;37.69;100516.28;106181;1282;62203;-81
2023/02/22 00:40:39;;;;;;;;;;;;;;;20.18;37.79;100521.62;106148;1288;62135;-81
2023/02/22 00:43:05;;;;;;;;;;;;;;;20.18;37.80;100514.31;106331;1282;62069;-81
2023/02/22 00:45:31;;;;;;;;;;;;;;;20.18;37.76;100508.02;106256;1282;76244;-81
2023/02/22 00:47:56;;;;;;;;;;;;;;;20.18;37.82;100506.45;106277;1282;62092;-81
2023/02/22 00:50:22;;;;;;;;;;;;;;;20.18;37.93;100501.48;106264;1282;62541;-81
2023/02/22 00:52:48;;;;;;;;;;;;;;;20.18;37.92;100505.02;106145;1282;61925;-81
2023/02/22 00:55:14;;;;;;;;;;;;;;;20.18;37.92;100503.05;106179;1282;62084;-81
2023/02/22 00:57:41;;;;;;;;;;;;;;;20.18;38.00;100501.30;106275;1282;61967;-81
2023/02/22 01:00:13;;;;;;;;;;;;;;;20.18;37.84;100498.04;106060;1282;62171;-81
2023/02/22 01:02:39;;;;;;;;;;;;;;;20.18;37.98;100500.37;106183;1282;73229;-80
2023/02/22 01:05:05;;;;;;;;;;;;;;;20.18;37.86;100499.33;106270;1282;62046;-80
2023/02/22 01:07:31;;;;;;;;;;;;;;;20.18;38.02;100502.17;106178;1283;62204;-80
2023/02/22 01:09:57;;;;;;;;;;;;;;;20.18;37.91;100498.08;106187;1282;62091;-80
2023/02/22 01:12:22;;;;;;;;;;;;;;;20.18;37.98;100495.57;106277;1283;62184;-80
2023/02/22 01:14:48;;;;;;;;;;;;;;;20.18;37.96;100496.63;106258;1282;62181;-80
2023/02/22 01:17:13;;;;;;;;;;;;;;;20.17;37.88;100488.45;106240;1282;62031;-80
2023/02/22 01:19:41;;;;;;;;;;;;;;;20.18;37.91;100487.88;106209;1282;62152;-80
2023/02/22 01:22:10;;;;;;;;;;;;;;;20.18;37.73;100494.65;106170;1282;62102;-80
2023/02/22 01:24:35;;;;;;;;;;;;;;;20.18;37.80;100501.62;106230;1282;59986;-80
2023/02/22 01:27:01;;;;;;;;;;;;;;;20.18;37.95;100508.97;106277;1283;62043;-80
2023/02/22 01:29:27;;;;;;;;;;;;;;;20.18;37.94;100513.23;106325;1282;62114;-80
2023/02/22 01:31:53;;;;;;;;;;;;;;;20.18;37.86;100517.33;106341;1282;62030;-81
2023/02/22 01:34:19;;;;;;;;;;;;;;;20.19;37.90;100520.53;106314;1282;62165;-80
2023/02/22 01:36:44;;;;;;;;;;;;;;;20.18;38.07;100517.16;106143;1282;72405;-80
2023/02/22 01:39:10;;;;;;;;;;;;;;;20.19;37.90;100512.49;106168;1287;62168;-80
2023/02/22 01:41:36;;;;;;;;;;;;;;;20.19;37.88;100511.77;106182;1287;62059;-80
2023/02/22 01:44:20;;;;;;;;;;;;;;;20.18;37.84;100509.29;106183;1282;62033;-80
2023/02/22 01:46:46;;;;;;;;;;;;;;;20.18;37.84;100513.59;106251;1282;72519;-80
2023/02/22 01:49:12;;;;;;;;;;;;;;;20.18;37.75;100515.92;106171;1283;62174;-80
2023/02/22 01:51:42;;;;;;;;;;;;;;;20.18;37.90;100514.13;106162;1283;62533;-80
2023/02/22 01:54:12;;;;;;;;;;;;;;;20.18;37.78;100519.14;106268;1282;62166;-80
2023/02/22 01:56:38;;;;;;;;;;;;;;;20.18;37.90;100509.12;106287;1282;72938;-80
2023/02/22 01:59:08;;;;;;;;;;;;;;;20.18;37.85;100517.01;106169;1287;60815;-80
2023/02/22 02:01:35;;;;;;;;;;;;;;;20.18;37.97;100523.25;106179;1283;61971;-80
2023/02/22 02:04:01;;;;;;;;;;;;;;;20.18;37.98;100525.93;106199;1282;61934;-80
2023/02/22 02:06:27;;;;;;;;;;;;;;;20.18;37.84;100518.77;106181;1282;62105;-80
2023/02/22 02:09:10;;;;;;;;;;;;;;;20.18;37.83;100523.94;106263;1282;62100;-80
2023/02/22 02:11:35;;;;;;;;;;;;;;;20.18;37.85;100520.77;106273;1283;62059;-80
2023/02/22 02:14:01;;;;;;;;;;;;;;;20.18;37.95;100523.81;106268;1282;62082;-80
2023/02/22 02:16:37;;;;;;;;;;;;;;;20.18;38.00;100525.40;106255;1282;62136;-80
2023/02/22 02:19:03;;;;;;;;;;;;;;;20.18;37.80;100526.13;106135;1283;75231;-80
2023/02/22 02:21:39;;;;;;;;;;;;;;;20.18;38.01;100538.80;106178;1283;62217;-80
2023/02/22 02:24:23;;;;;;;;;;;;;;;20.18;37.68;100540.75;106175;1283;62214;-81
2023/02/22 02:27:10;;;;;;;;;;;;;;;20.18;37.90;100532.38;106225;1283;72482;-80
2023/02/22 02:29:36;;;;;;;;;;;;;;;20.18;37.88;100530.41;106251;1282;75321;-80
2023/02/22 02:32:09;;;;;;;;;;;;;;;20.18;37.86;100539.89;106277;1282;62092;-80
2023/02/22 02:34:39;;;;;;;;;;;;;;;20.18;38.02;100542.40;106284;1283;61958;-81
2023/02/22 02:37:23;;;;;;;;;;;;;;;20.18;37.96;100546.14;106158;1282;72488;-81
2023/02/22 02:40:12;;;;;;;;;;;;;;;20.18;38.05;100541.30;106259;1283;76312;-80
2023/02/22 02:42:41;;;;;;;;;;;;;;;20.18;38.02;100542.75;105505;1288;62099;-80
2023/02/22 02:45:13;;;;;;;;;;;;;;;20.18;37.97;100544.55;105509;1289;61983;-80
2023/02/22 02:47:47;;;;;;;;;;;;;;;20.18;38.06;100548.81;105490;1288;72422;-80
2023/02/22 02:50:14;;;;;;;;;;;;;;;20.18;37.98;100551.52;105430;1289;75016;-80
2023/02/22 02:52:40;;;;;;;;;;;;;;;20.18;38.07;100541.14;105553;1288;62154;-81
2023/02/22 02:55:06;;;;;;;;;;;;;;;20.18;38.02;100544.15;105382;1288;61994;-81
2023/02/22 02:57:32;;;;;;;;;;;;;;;20.18;38.02;100547.36;105378;1288;61983;-81
2023/02/22 02:59:57;;;;;;;;;;;;;;;20.18;38.03;100545.23;105383;1288;62237;-81
2023/02/22 03:02:23;;;;;;;;;;;;;;;20.18;38.05;100543.27;105504;1288;62178;-81
2023/02/22 03:05:10;;;;;;;;;;;;;;;20.18;38.04;100544.19;105440;1288;62273;-81
2023/02/22 03:07:37;;;;;;;;;;;;;;;20.17;37.93;100546.54;105534;1288;62059;-81
2023/02/22 03:10:32;;;;;;;;;;;;;;;20.17;37.95;100548.65;105531;1289;72445;-81
2023/02/22 03:13:04;;;;;;;;;;;;;;;20.18;37.85;100558.12;105002;1294;76289;-80
2023/02/22 03:15:50;;;;;;;;;;;;;;;20.17;38.08;100564.57;105002;1294;62035;-80
2023/02/22 03:18:27;;;;;;;;;;;;;;;20.18;37.96;100561.67;104898;1294;62087;-81
2023/02/22 03:20:53;;;;;;;;;;;;;;;20.17;37.99;100552.78;105491;1288;72740;-81
2023/02/22 03:23:32;;;;;;;;;;;;;;;20.18;38.02;100559.36;105616;1292;61011;-81
2023/02/22 03:26:00;;;;;;;;;;;;;;;20.18;38.03;100553.66;105515;1289;62010;-81
2023/02/22 03:28:26;;;;;;;;;;;;;;;20.18;38.00;100555.97;105486;1288;62204;-81
2023/02/22 03:30:59;;;;;;;;;;;;;;;20.18;38.10;100559.38;105499;1289;62233;-81
2023/02/22 03:33:32;;;;;;;;;;;;;;;20.18;38.02;100563.27;105622;1289;75055;-81
2023/02/22 03:36:17;;;;;;;;;;;;;;;20.18;38.16;100564.02;105619;1288;61890;-81
2023/02/22 03:38:43;;;;;;;;;;;;;;;20.18;38.08;100570.80;105613;1288;62191;-81
2023/02/22 03:41:08;;;;;;;;;;;;;;;20.18;38.15;100569.71;105531;1289;62102;-81
2023/02/22 03:43:38;;;;;;;;;;;;;;;20.18;38.04;100575.81;105613;1289;62299;-81
2023/02/22 03:46:03;;;;;;;;;;;;;;;20.18;38.12;100580.60;105497;1289;60771;-81
2023/02/22 03:48:36;;;;;;;;;;;;;;;20.18;38.09;100579.02;105472;1288;62003;-81
2023/02/22 03:51:03;;;;;;;;;;;;;;;20.18;38.11;100575.44;106209;1283;73276;-80
2023/02/22 03:53:36;;;;;;;;;;;;;;;20.18;38.03;100574.35;106376;1282;76467;-81
2023/02/22 03:56:02;;;;;;;;;;;;;;;20.17;38.04;100572.79;106165;1282;62079;-81
2023/02/22 03:58:29;;;;;;;;;;;;;;;20.18;38.10;100573.08;106151;1287;62164;-81
2023/02/22 04:00:55;;;;;;;;;;;;;;;20.18;38.14;100575.05;106155;1283;72499;-81
2023/02/22 04:03:21;;;;;;;;;;;;;;;20.18;38.13;100578.66;106180;1283;62142;-81
2023/02/22 04:05:46;;;;;;;;;;;;;;;20.18;38.11;100576.66;106174;1283;62084;-81
2023/02/22 04:08:11;;;;;;;;;;;;;;;20.18;38.09;100579.00;106153;1283;62124;-81
2023/02/22 04:10:37;;;;;;;;;;;;;;;20.18;38.11;100579.88;106202;1282;62088;-81
2023/02/22 04:13:03;;;;;;;;;;;;;;;20.18;38.03;100577.73;106150;1283;72625;-81
2023/02/22 04:15:29;;;;;;;;;;;;;;;20.18;38.06;100577.77;106279;1285;62066;-81
2023/02/22 04:17:55;;;;;;;;;;;;;;;20.18;37.93;100577.39;106147;1283;62047;-81
2023/02/22 04:20:24;;;;;;;;;;;;;;;20.17;38.11;100576.70;106157;1282;62159;-81
2023/02/22 04:22:53;;;;;;;;;;;;;;;20.18;38.10;100571.33;106178;1283;72527;-81
2023/02/22 04:25:19;;;;;;;;;;;;;;;20.17;38.04;100567.41;105728;1282;75913;-81
2023/02/22 04:27:44;;;;;;;;;;;;;;;20.18;38.02;100571.51;106284;1283;62067;-81
2023/02/22 04:30:10;;;;;;;;;;;;;;;20.18;38.09;100570.79;105997;1283;61936;-81
2023/02/22 04:32:36;;;;;;;;;;;;;;;20.17;38.04;100571.54;106004;1288;61963;-81
2023/02/22 04:35:02;;;;;;;;;;;;;;;20.17;38.04;100570.52;106152;1282;62088;-81
2023/02/22 04:37:28;;;;;;;;;;;;;;;20.17;38.11;100577.81;106164;1282;62092;-81
2023/02/22 04:39:53;;;;;;;;;;;;;;;20.17;38.08;100581.17;106195;1283;62110;-81
2023/02/22 04:42:19;;;;;;;;;;;;;;;20.17;38.08;100581.40;106163;1283;62098;-81
2023/02/22 04:44:44;;;;;;;;;;;;;;;20.17;37.97;100585.66;106133;1283;62172;-81
2023/02/22 04:47:09;;;;;;;;;;;;;;;20.18;38.05;100593.33;106280;1283;60756;-81
2023/02/22 04:49:35;;;;;;;;;;;;;;;20.17;38.00;100597.27;106281;1282;62120;-81
2023/02/22 04:52:01;;;;;;;;;;;;;;;20.17;38.05;100601.20;106294;1282;62081;-81
2023/02/22 04:54:26;;;;;;;;;;;;;;;20.17;38.09;100606.91;106159;1283;62067;-80
2023/02/22 04:56:52;;;;;;;;;;;;;;;20.17;38.03;100615.15;106155;1283;62162;-80
2023/02/22 04:59:18;;;;;;;;;;;;;;;20.17;37.95;100616.05;106239;1285;62041;-80
2023/02/22 05:01:44;;;;;;;;;;;;;;;20.17;38.01;100613.23;106150;1282;62142;-81
2023/02/22 05:04:10;;;;;;;;;;;;;;;20.16;37.80;100620.56;106022;1282;62059;-81
2023/02/22 05:06:35;;;;;;;;;;;;;;;20.16;37.75;100616.48;106219;1283;62062;-81
2023/02/22 05:09:01;;;;;;;;;;;;;;;20.17;37.71;100619.85;106223;1287;62078;-81
2023/02/22 05:11:26;;;;;;;;;;;;;;;20.17;37.71;100624.45;106303;1288;61921;-80
2023/02/22 05:13:52;;;;;;;;;;;;;;;20.16;37.54;100632.71;106196;1282;62146;-80
2023/02/22 05:16:18;;;;;;;;;;;;;;;20.17;37.51;100637.34;106193;1283;62091;-80
2023/02/22 05:18:43;;;;;;;;;;;;;;;20.17;37.62;100639.66;106215;1283;62033;-80
2023/02/22 05:21:08;;;;;;;;;;;;;;;20.17;37.59;100649.46;106224;1283;62174;-80
2023/02/22 05:23:34;;;;;;;;;;;;;;;20.16;37.34;100650.58;106254;1285;62052;-80
2023/02/22 05:26:00;;;;;;;;;;;;;;;20.17;37.50;100655.72;106060;1284;62181;-80
2023/02/22 05:28:25;;;;;;;;;;;;;;;20.17;37.42;100653.00;106184;1283;62145;-80
2023/02/22 05:30:51;;;;;;;;;;;;;;;20.18;37.41;100659.42;106288;1282;62117;-81
2023/02/22 05:33:16;;;;;;;;;;;;;;;20.18;37.22;100665.84;106239;1282;62084;-81
2023/02/22 05:35:42;;;;;;;;;;;;;;;20.18;37.20;100673.52;106311;1282;75250;-81
2023/02/22 05:38:07;;;;;;;;;;;;;;;20.18;37.12;100674.59;106220;1285;60771;-81
2023/02/22 05:40:32;;;;;;;;;;;;;;;20.19;37.18;100678.13;106217;1283;62117;-81
2023/02/22 05:42:58;;;;;;;;;;;;;;;20.19;37.10;100678.84;106210;1288;62095;-81
2023/02/22 05:45:24;;;;;;;;;;;;;;;20.19;37.02;100683.10;106054;1283;62181;-81
2023/02/22 05:47:50;;;;;;;;;;;;;;;20.19;36.92;100684.88;106224;1282;76132;-81
2023/02/22 05:50:15;;;;;;;;;;;;;;;20.19;36.82;100688.27;106317;1284;62082;-81
2023/02/22 05:52:41;;;;;;;;;;;;;;;20.20;37.04;100689.48;106227;1282;62047;-81
2023/02/22 05:55:07;;;;;;;;;;;;;;;20.20;36.95;100697.14;106204;1283;62962;-81
2023/02/22 05:57:32;;;;;;;;;;;;;;;20.20;37.05;100695.35;106322;1285;62111;-81
2023/02/22 05:59:58;;;;;;;;;;;;;;;20.21;37.02;100695.84;106229;1288;62188;-81
2023/02/22 06:02:24;;;;;;;;;;;;;;;20.21;37.11;100701.20;106249;1282;62122;-81
2023/02/22 06:04:49;;;;;;;;;;;;;;;20.21;37.09;100704.02;106188;1283;62119;-81
2023/02/22 06:07:15;;;;;;;;;;;;;;;20.22;37.01;100704.70;106259;1282;62088;-81
2023/02/22 06:09:40;;;;;;;;;;;;;;;20.23;37.07;100708.73;106106;1281;59992;-81
2023/02/22 06:12:06;;;;;;;;;;;;;;;20.23;37.17;100706.19;106401;1283;62065;-81
2023/02/22 06:14:31;;;;;;;;;;;;;;;20.23;37.22;100712.27;106270;1284;61929;-81
2023/02/22 06:16:57;;;;;;;;;;;;;;;20.24;37.19;100712.41;106416;1283;62075;-81
2023/02/22 06:19:22;;;;;;;;;;;;;;;20.24;37.24;100713.30;106321;1285;62134;-81
2023/02/22 06:21:56;;;;;;;;;;;;;;;20.25;37.17;100717.71;106258;1283;62254;-81
2023/02/22 06:24:23;;;;;;;;;;;;;;;20.25;37.32;100715.19;106276;1282;62172;-81
2023/02/22 06:26:55;;;;;;;;;;;;;;;20.26;37.17;100725.16;106201;1284;60728;-81
2023/02/22 06:29:22;;;;;;;;;;;;;;;20.26;37.38;100731.05;106188;1288;72294;-80
2023/02/22 06:31:48;;;;;;;;;;;;;;;20.26;37.33;100738.39;106201;1283;75254;-81
2023/02/22 06:34:13;;;;;;;;;;;;;;;20.26;37.32;100744.61;106295;1284;62094;-81
2023/02/22 06:36:39;;;;;;;;;;;;;;;20.26;37.27;100748.70;106340;1283;62265;-81
2023/02/22 06:39:04;;;;;;;;;;;;;;;20.27;37.35;100746.70;106257;1283;62085;-81
2023/02/22 06:41:30;;;;;;;;;;;;;;;20.28;37.31;100754.70;106147;1283;62197;-81
2023/02/22 06:43:55;;;;;;;;;;;;;;;20.28;37.38;100754.52;106056;1283;75525;-81
2023/02/22 06:46:21;;;;;;;;;;;;;;;20.28;37.42;100752.00;106277;1283;62118;-81
2023/02/22 06:48:46;;;;;;;;;;;;;;;20.29;37.41;100754.97;106157;1283;62114;-81
2023/02/22 06:51:12;;;;;;;;;;;;;;;20.29;37.48;100752.85;106069;1283;60109;-80
2023/02/22 06:53:37;;;;;;;;;;;;;;;20.29;37.46;100753.55;106224;1285;62193;-80
2023/02/22 06:56:03;;;;;;;;;;;;;;;20.29;37.36;100758.91;106175;1288;76227;-81
2023/02/22 06:58:29;;;;;;;;;;;;;;;20.29;37.48;100758.20;106151;1288;62030;-81
2023/02/22 07:00:54;;;;;;;;;;;;;;;20.29;37.36;100758.91;106181;1283;61967;-81
2023/02/22 07:03:20;;;;;;;;;;;;;;;20.29;37.48;100764.08;105588;1287;751203;-81
2023/02/22 07:05:45;;;;;;;;;;;;;;;20.29;37.32;100763.72;106300;1283;60432;-81
2023/02/22 07:08:11;;;;;;;;;;;;;;;20.30;37.35;100769.40;106239;1283;62133;-80
2023/02/22 07:10:37;;;;;;;;;;;;;;;20.31;37.42;100771.13;106311;1282;60350;-81
2023/02/22 07:13:03;;;;;;;;;;;;;;;20.31;37.41;100772.35;106190;1283;62155;-81
2023/02/22 07:15:29;;;;;;;;;;;;;;;20.32;37.29;100771.75;106183;1287;62046;-81
2023/02/22 07:17:55;;;;;;;;;;;;;;;20.32;37.30;100778.89;106152;1287;62097;-81
2023/02/22 07:20:20;;;;;;;;;;;;;;;20.33;37.35;100777.91;106306;1283;62187;-81
2023/02/22 07:22:46;;;;;;;;;;;;;;;20.34;37.27;100779.64;106246;1285;62088;-81
2023/02/22 07:25:12;;;;;;;;;;;;;;;20.35;37.27;100782.63;106053;1282;62181;-81
2023/02/22 07:27:38;;;;;;;;;;;;;;;20.35;37.37;100782.94;106178;1283;73613;-81
2023/02/22 07:30:04;;;;;;;;;;;;;;;20.37;37.41;100782.16;106377;1282;62071;-81
2023/02/22 07:32:30;;;;;;;;;;;;;;;20.37;37.22;100786.57;106278;1283;62059;-81
2023/02/22 07:34:55;;;;;;;;;;;;;;;20.38;37.21;100782.56;106188;1287;62082;-81
2023/02/22 07:37:21;;;;;;;;;;;;;;;20.39;37.16;100788.96;106182;1282;61048;-81
2023/02/22 07:39:46;;;;;;;;;;;;;;;20.39;37.27;100789.87;106190;1282;62079;-81
2023/02/22 07:42:12;;;;;;;;;;;;;;;20.40;37.08;100792.98;106207;1283;62069;-81
2023/02/22 07:44:38;;;;;;;;;;;;;;;20.40;37.01;100794.23;106158;1283;62091;-81
2023/02/22 07:47:03;;;;;;;;;;;;;;;20.40;37.00;100792.80;106252;1283;62027;-81
2023/02/22 07:49:29;;;;;;;;;;;;;;;20.41;37.04;100791.86;106302;1282;62104;-81
2023/02/22 07:51:55;;;;;;;;;;;;;;;20.41;36.90;100793.45;106192;1282;62044;-80
2023/02/22 07:54:20;;;;;;;;;;;;;;;20.42;36.84;100798.23;106323;1281;60764;-81
2023/02/22 07:56:46;;;;;;;;;;;;;;;20.42;36.93;100798.20;106197;1282;61831;-81
2023/02/22 07:59:12;;;;;;;;;;;;;;;20.42;36.84;100795.87;106162;1283;62156;-81
2023/02/22 08:01:37;;;;;;;;;;;;;;;20.43;36.88;100795.83;106139;1283;62824;-81
2023/02/22 08:04:03;;;;;;;;;;;;;;;20.44;36.94;100801.46;106172;1282;62091;-81
2023/02/22 08:06:28;;;;;;;;;;;;;;;20.46;36.99;100799.95;106310;1282;62068;-81
2023/02/22 08:08:54;;;;;;;;;;;;;;;20.46;36.98;100798.48;106351;1282;60321;-81
2023/02/22 08:11:19;;;;;;;;;;;;;;;20.46;37.11;100801.15;106139;1283;62073;-81
2023/02/22 08:13:45;;;;;;;;;;;;;;;20.47;37.11;100794.69;106275;1282;62132;-81
2023/02/22 08:16:10;;;;;;;;;;;;;;;20.47;37.24;100796.48;106165;1283;62258;-81
2023/02/22 08:18:37;;;;;;;;;;;;;;;20.47;37.02;100789.12;106142;1282;62112;-80
2023/02/22 08:21:03;;;;;;;;;;;;;;;20.47;37.08;100794.67;106308;1282;62159;-81
2023/02/22 08:23:28;;;;;;;;;;;;;;;20.47;37.26;100796.81;106326;1282;62709;-81
2023/02/22 08:25:55;;;;;;;;;;;;;;;20.47;37.37;100797.39;106270;1283;72426;-81
2023/02/22 08:28:22;;;;;;;;;;;;;;;20.47;37.29;100798.06;106223;1281;62992;-80
2023/02/22 08:30:47;;;;;;;;;;;;;;;20.47;37.30;100800.73;106056;1282;61974;-81
2023/02/22 08:33:15;;;;;;;;;;;;;;;20.47;37.39;100805.41;106281;1283;62029;-81
2023/02/22 08:35:41;;;;;;;;;;;;;;;20.47;37.42;100808.80;106201;1287;72406;-81
2023/02/22 08:38:07;;;;;;;;;;;;;;;20.47;37.28;100811.51;106235;1281;62161;-81
2023/02/22 08:40:33;;;;;;;;;;;;;;;20.46;37.46;100812.77;106110;1283;62097;-81
2023/02/22 08:43:00;;;;;;;;;;;;;;;20.46;37.56;100812.79;106304;1283;61924;-81
2023/02/22 08:45:26;;;;;;;;;;;;;;;20.46;37.49;100814.02;106352;1282;61804;-81
2023/02/22 08:47:52;;;;;;;;;;;;;;;20.46;37.60;100812.97;106057;1282;62084;-82
2023/02/22 08:50:22;;;;;;;;;;;;;;;20.46;37.66;100816.16;106166;1282;62258;-81
2023/02/22 08:52:49;;;;;;;;;;;;;;;20.47;37.75;100817.94;106293;1282;61871;-81
2023/02/22 08:55:14;;;;;;;;;;;;;;;20.47;37.82;100817.23;106250;1282;72784;-82
2023/02/22 08:57:40;;;;;;;;;;;;;;;20.47;37.98;100812.76;106311;1282;60454;-81
2023/02/22 09:00:06;;;;;;;;;;;;;;;20.47;37.90;100820.79;106219;1283;62051;-81
2023/02/22 09:02:32;;;;;;;;;;;;;;;20.47;38.08;100824.70;106295;1283;60918;-81
2023/02/22 09:04:57;;;;;;;;;;;;;;;20.48;38.07;100823.95;106294;1284;62036;-82
2023/02/22 09:07:23;;;;;;;;;;;;;;;20.48;38.43;100826.27;106203;1283;62036;-82
2023/02/22 09:09:51;;;;;;;;;;;;;;;20.48;38.40;100830.72;106158;1282;75118;-82
2023/02/22 09:12:16;;;;;;;;;;;;;;;20.49;38.42;100840.48;106288;1282;62065;-81
2023/02/22 09:14:42;;;;;;;;;;;;;;;20.49;38.52;100839.38;106287;1281;60849;-82
2023/02/22 09:17:07;;;;;;;;;;;;;;;20.50;38.53;100837.92;105979;1283;62232;-82
2023/02/22 09:19:33;;;;;;;;;;;;;;;20.50;38.39;100842.58;106149;1282;62139;-81
2023/02/22 09:22:01;;;;;;;;;;;;;;;20.50;38.52;100841.48;106201;1283;62062;-81
2023/02/22 09:24:27;;;;;;;;;;;;;;;20.50;38.57;100845.60;106178;1283;61971;-81
2023/02/22 09:26:53;;;;;;;;;;;;;;;20.50;38.56;100844.33;106170;1283;62063;-81
2023/02/22 09:29:22;;;;;;;;;;;;;;;20.50;38.70;100846.09;106224;1282;62047;-81
2023/02/22 09:31:47;;;;;;;;;;;;;;;20.51;38.85;100843.54;106225;1282;75362;-81
2023/02/22 09:34:14;;;;;;;;;;;;;;;20.51;38.93;100843.35;106205;1283;62036;-81
2023/02/22 09:36:40;;;;;;;;;;;;;;;20.52;39.01;100846.16;106330;1283;62063;-81
2023/02/22 09:39:05;;;;;;;;;;;;;;;20.52;38.99;100841.91;106196;1282;61889;-81
2023/02/22 09:41:36;;;;;;;;;;;;;;;20.52;39.00;100842.59;106216;1287;62061;-81
2023/02/22 09:44:15;;;;;;;;;;;;;;;20.52;38.95;100840.11;106240;1283;61938;-81
2023/02/22 09:46:40;;;;;;;;;;;;;;;20.52;39.13;100839.73;106277;1281;61993;-81
2023/02/22 09:49:12;;;;;;;;;;;;;;;20.52;39.12;100836.14;106278;1282;60090;-81
2023/02/22 09:51:40;;;;;;;;;;;;;;;20.52;39.07;100840.26;106300;1283;76126;-81
2023/02/22 09:54:09;;;;;;;;;;;;;;;20.53;39.17;100845.25;106318;1282;61957;-81
2023/02/22 09:56:35;;;;;;;;;;;;;;;20.53;39.16;100853.80;106319;1282;62393;-81
2023/02/22 09:59:02;;;;;;;;;;;;;;;20.54;39.26;100851.95;106149;1283;62077;-81
2023/02/22 10:01:28;;;;;;;;;;;;;;;20.53;39.35;100852.14;106161;1282;76230;-81
2023/02/22 10:04:17;;;;;;;;;;;;;;;20.54;39.20;100849.08;106004;1282;62156;-81
2023/02/22 10:06:51;;;;;;;;;;;;;;;20.55;39.23;100848.86;106181;1282;61853;-81
2023/02/22 10:09:17;;;;;;;;;;;;;;;20.55;39.14;100845.98;106198;1282;72449;-81
2023/02/22 10:11:48;;;;;;;;;;;;;;;20.55;39.20;100852.73;106420;1282;76292;-81
2023/02/22 10:14:32;;;;;;;;;;;;;;;20.56;39.31;100847.89;106168;1282;61861;-81
2023/02/22 10:17:10;;;;;;;;;;;;;;;20.55;39.11;100843.43;106267;1282;62063;-81
2023/02/22 10:19:39;;;;;;;;;;;;;;;20.56;39.01;100840.70;106260;1282;73515;-81
2023/02/22 10:22:29;;;;;;;;;;;;;;;20.57;39.14;100840.66;106211;1282;76096;-81
2023/02/22 10:25:03;;;;;;;;;;;;;;;20.56;39.16;100836.39;106490;1282;60087;-81
2023/02/22 10:27:31;;;;;;;;;;;;;;;20.57;39.18;100832.05;106214;1282;61940;-81
2023/02/22 10:29:59;;;;;;;;;;;;;;;20.57;39.21;100824.54;106978;1285;72594;-81
2023/02/22 10:32:29;;;;;;;;;;;;;;;20.58;39.07;100822.36;106632;1282;75247;-80
2023/02/22 10:34:55;;;;;;;;;;;;;;;20.58;39.07;100824.84;106306;1282;62037;-80
2023/02/22 10:37:38;;;;;;;;;;;;;;;20.59;39.14;100823.34;106238;1282;61162;-80
2023/02/22 10:40:11;;;;;;;;;;;;;;;20.59;39.24;100817.98;106328;1283;73562;-80
2023/02/22 10:42:37;;;;;;;;;;;;;;;20.59;38.95;100814.94;106320;1283;75339;-80
2023/02/22 10:45:02;;;;;;;;;;;;;;;20.60;38.96;100811.30;106346;1282;62078;-80
2023/02/22 10:47:28;;;;;;;;;;;;;;;20.60;39.00;100812.55;106241;1282;62215;-81
2023/02/22 10:49:57;;;;;;;;;;;;;;;20.60;38.84;100811.12;106295;1282;62069;-81
2023/02/22 10:52:29;;;;;;;;;;;;;;;20.60;38.88;100806.81;106274;1283;61919;-81
2023/02/22 10:54:56;;;;;;;;;;;;;;;20.60;38.83;100809.67;106250;1283;60411;-81
2023/02/22 10:57:23;;;;;;;;;;;;;;;20.61;38.94;100806.77;106366;1283;61923;-81
2023/02/22 10:59:50;;;;;;;;;;;;;;;20.62;38.87;100806.21;106275;1283;73586;-81
2023/02/22 11:02:19;;;;;;;;;;;;;;;20.61;38.78;100804.97;106374;1283;75370;-81
2023/02/22 11:04:48;;;;;;;;;;;;;;;20.62;38.77;100803.67;106335;1282;62921;-81
2023/02/22 11:07:29;;;;;;;;;;;;;;;20.63;38.81;100801.14;106497;1282;60881;-81
2023/02/22 11:09:54;;;;;;;;;;;;;;;20.63;38.90;100799.85;106305;1281;72291;-81
2023/02/22 11:12:25;;;;;;;;;;;;;;;20.63;38.62;100804.12;106298;1281;62072;-81
2023/02/22 11:14:51;;;;;;;;;;;;;;;20.63;38.85;100802.53;106240;1282;62155;-81
2023/02/22 11:17:18;;;;;;;;;;;;;;;20.63;38.94;100805.58;106217;1282;61941;-81
2023/02/22 11:19:47;;;;;;;;;;;;;;;20.63;38.67;100807.68;106622;1283;62066;-81
2023/02/22 11:22:18;;;;;;;;;;;;;;;20.64;38.78;100799.80;106304;1283;75826;-81
2023/02/22 11:24:49;;;;;;;;;;;;;;;20.64;38.69;100800.68;106020;1283;60652;-81
2023/02/22 11:27:42;;;;;;;;;;;;;;;20.63;38.78;100799.98;106255;1282;62084;-81
2023/02/22 11:30:13;;;;;;;;;;;;;;;20.64;38.87;100800.14;106362;1282;73330;-81
2023/02/22 11:32:46;;;;;;;;;;;;;;;20.64;38.62;100797.26;106274;1282;76222;-81
2023/02/22 11:35:19;;;;;;;;;;;;;;;20.64;38.70;100800.27;106347;1281;60675;-81
2023/02/22 11:37:45;;;;;;;;;;;;;;;20.65;38.79;100800.25;106216;1282;61954;-81
2023/02/22 11:40:18;;;;;;;;;;;;;;;20.65;38.72;100798.11;106183;1283;62094;-81
2023/02/22 11:42:45;;;;;;;;;;;;;;;20.65;38.70;100796.50;106279;1281;75102;-81
2023/02/22 11:45:22;;;;;;;;;;;;;;;20.64;38.86;100797.77;106295;1282;61972;-81
2023/02/22 11:47:54;;;;;;;;;;;;;;;20.64;38.72;100797.05;106293;1282;62066;-81
2023/02/22 11:50:29;;;;;;;;;;;;;;;20.64;38.62;100797.59;106274;1285;73389;-81
2023/02/22 11:53:07;;;;;;;;;;;;;;;20.64;38.75;100797.60;106220;1281;75067;-81
2023/02/22 11:55:52;;;;;;;;;;;;;;;20.64;38.75;100791.55;106179;1282;62085;-81
2023/02/22 11:58:27;;;;;;;;;;;;;;;20.64;38.72;100795.66;106279;1282;61893;-81
2023/02/22 12:00:58;;;;;;;;;;;;;;;20.64;38.76;100792.80;106170;1283;72892;-81
2023/02/22 12:03:27;;;;;;;;;;;;;;;20.64;38.88;100790.84;106202;1283;75361;-81
2023/02/22 12:05:58;;;;;;;;;;;;;;;20.64;38.78;100788.52;106082;1288;61973;-81
2023/02/22 12:08:24;;;;;;;;;;;;;;;20.64;38.88;100786.40;106257;1283;62085;-81
2023/02/22 12:10:54;;;;;;;;;;;;;;;20.64;38.88;100784.93;106349;1282;61656;-81
2023/02/22 12:13:39;;;;;;;;;;;;;;;20.64;38.85;100783.13;106330;1282;76339;-81
2023/02/22 12:16:28;;;;;;;;;;;;;;;20.65;38.92;100779.70;106319;1282;61845;-81
2023/02/22 12:18:53;;;;;;;;;;;;;;;20.65;38.75;100776.98;105691;1288;62003;-81
2023/02/22 12:21:19;;;;;;;;;;;;;;;20.65;38.81;100776.44;105560;1288;62172;-81
2023/02/22 12:23:49;;;;;;;;;;;;;;;20.66;38.76;100777.84;105695;1288;62163;-81
2023/02/22 12:26:15;;;;;;;;;;;;;;;20.66;38.86;100775.15;105685;1288;60133;-81
2023/02/22 12:28:42;;;;;;;;;;;;;;;20.66;38.87;100774.09;105705;1288;60447;-81
2023/02/22 12:31:16;;;;;;;;;;;;;;;20.66;38.85;100775.98;106508;1288;59789;-81
2023/02/22 12:33:59;;;;;;;;;;;;;;;20.66;38.82;100772.05;105996;1288;75477;-81